createdAt,value
2024-04-13T00:00:58.938Z,10.07
2024-04-13T00:01:59.629Z,10.07
2024-04-13T00:02:58.955Z,10.03
2024-04-13T00:03:59.589Z,10.01
2024-04-13T00:04:58.886Z,10.01
2024-04-13T00:05:58.441Z,10.01
2024-04-13T00:06:59.473Z,10.00
2024-04-13T00:07:58.406Z,10.00
2024-04-13T00:08:59.448Z,10.00
2024-04-13T00:09:58.767Z,10.00
2024-04-13T00:10:58.761Z,10.00
2024-04-13T00:11:58.358Z,9.99
2024-04-13T00:12:58.757Z,9.97
2024-04-13T00:13:59.381Z,9.99
2024-04-13T00:14:58.755Z,9.99
2024-04-13T00:15:58.667Z,10.01
2024-04-13T00:16:58.759Z,10.03
2024-04-13T00:17:59.874Z,10.03
2024-04-13T00:18:58.373Z,10.04
2024-04-13T00:19:58.659Z,10.04
2024-04-13T00:20:58.620Z,10.03
2024-04-13T00:21:58.609Z,9.99
2024-04-13T00:22:58.602Z,9.93
2024-04-13T00:23:59.242Z,9.91
2024-04-13T00:24:58.574Z,9.89
2024-04-13T00:25:59.215Z,9.93
2024-04-13T00:26:59.205Z,9.96
2024-04-13T00:27:58.341Z,9.94
2024-04-13T00:28:58.516Z,9.91
2024-04-13T00:29:59.726Z,9.86
2024-04-13T00:30:58.527Z,9.85
2024-04-13T00:31:59.116Z,9.81
2024-04-13T00:32:58.593Z,9.82
2024-04-13T00:33:59.090Z,9.81
2024-04-13T00:34:58.461Z,9.81
2024-04-13T00:35:58.412Z,9.82
2024-04-13T00:36:59.612Z,9.78
2024-04-13T00:37:58.401Z,9.78
2024-04-13T00:38:58.380Z,9.81
2024-04-13T00:39:59.033Z,9.82
2024-04-13T00:40:59.004Z,9.82
2024-04-13T00:41:58.367Z,9.81
2024-04-13T00:42:58.971Z,9.79
2024-04-13T00:43:58.307Z,9.76
2024-04-13T00:44:58.318Z,9.73
2024-04-13T00:45:58.927Z,9.71
2024-04-13T00:46:58.266Z,9.71
2024-04-13T00:47:59.561Z,9.73
2024-04-13T00:48:58.313Z,9.71
2024-04-13T00:49:58.880Z,9.73
2024-04-13T00:50:58.911Z,9.73
2024-04-13T00:51:58.199Z,9.71
2024-04-13T00:52:58.175Z,9.70
2024-04-13T00:53:59.388Z,9.68
2024-04-13T00:54:58.806Z,9.68
2024-04-13T00:55:58.790Z,9.68
2024-04-13T00:56:58.175Z,9.68
2024-04-13T00:57:58.111Z,9.66
2024-04-13T00:58:58.778Z,9.64
2024-04-13T00:59:58.114Z,9.64
2024-04-13T01:00:58.506Z,9.67
2024-04-13T01:01:58.727Z,9.70
2024-04-13T01:02:58.070Z,9.71
2024-04-13T01:03:58.114Z,9.70
2024-04-13T01:04:58.025Z,9.70
2024-04-13T01:05:58.019Z,9.68
2024-04-13T01:06:57.991Z,9.68
2024-04-13T01:07:58.022Z,9.66
2024-04-13T01:08:58.616Z,9.66
2024-04-13T01:09:57.949Z,9.66
2024-04-13T01:10:58.605Z,9.63
2024-04-13T01:11:58.651Z,9.57
2024-04-13T01:12:58.583Z,9.56
2024-04-13T01:13:58.557Z,9.52
2024-04-13T01:14:58.548Z,9.53
2024-04-13T01:15:57.637Z,9.57
2024-04-13T01:16:57.856Z,9.60
2024-04-13T01:17:57.589Z,9.61
2024-04-13T01:18:58.510Z,9.60
2024-04-13T01:19:58.452Z,9.61
2024-04-13T01:20:57.803Z,9.61
2024-04-13T01:21:58.473Z,9.60
2024-04-13T01:22:57.791Z,9.56
2024-04-13T01:23:58.457Z,9.53
2024-04-13T01:24:58.387Z,9.52
2024-04-13T01:25:57.597Z,9.49
2024-04-13T01:26:58.374Z,9.46
2024-04-13T01:27:58.364Z,9.48
2024-04-13T01:28:58.343Z,9.48
2024-04-13T01:29:57.680Z,9.48
2024-04-13T01:30:57.663Z,9.50
2024-04-13T01:31:57.022Z,9.50
2024-04-13T01:32:58.387Z,9.46
2024-04-13T01:33:57.686Z,9.45
2024-04-13T01:34:57.614Z,9.45
2024-04-13T01:35:57.589Z,9.45
2024-04-13T01:36:57.575Z,9.43
2024-04-13T01:37:58.228Z,9.43
2024-04-13T01:38:57.567Z,9.42
2024-04-13T01:39:58.195Z,9.42
2024-04-13T01:40:57.539Z,9.39
2024-04-13T01:41:57.509Z,9.39
2024-04-13T01:42:57.506Z,9.39
2024-04-13T01:43:57.477Z,9.39
2024-04-13T01:44:58.133Z,9.32
2024-04-13T01:45:57.438Z,9.27
2024-04-13T01:46:57.435Z,9.25
2024-04-13T01:47:57.501Z,9.28
2024-04-13T01:48:57.522Z,9.31
2024-04-13T01:49:57.420Z,9.32
2024-04-13T01:50:57.409Z,9.32
2024-04-13T01:51:57.386Z,9.30
2024-04-13T01:52:57.399Z,9.28
2024-04-13T01:53:57.361Z,9.25
2024-04-13T01:54:58.012Z,9.25
2024-04-13T01:55:57.967Z,9.24
2024-04-13T01:56:57.946Z,9.23
2024-04-13T01:57:57.940Z,9.21
2024-04-13T01:58:57.923Z,9.15
2024-04-13T01:59:57.942Z,9.15
2024-04-13T02:00:57.969Z,9.15
2024-04-13T02:01:57.926Z,9.16
2024-04-13T02:02:57.258Z,9.12
2024-04-13T02:03:57.318Z,9.15
2024-04-13T02:04:57.854Z,9.10
2024-04-13T02:05:57.831Z,9.04
2024-04-13T02:06:57.179Z,9.02
2024-04-13T02:07:57.820Z,8.99
2024-04-13T02:08:57.164Z,8.97
2024-04-13T02:09:57.109Z,8.97
2024-04-13T02:10:57.841Z,8.99
2024-04-13T02:11:57.746Z,8.94
2024-04-13T02:12:57.741Z,8.91
2024-04-13T02:13:57.059Z,8.93
2024-04-13T02:14:57.710Z,8.94
2024-04-13T02:15:57.699Z,8.99
2024-04-13T02:16:57.689Z,9.01
2024-04-13T02:17:57.747Z,9.04
2024-04-13T02:18:58.118Z,9.05
2024-04-13T02:19:57.026Z,9.04
2024-04-13T02:20:56.985Z,9.01
2024-04-13T02:21:56.962Z,8.97
2024-04-13T02:22:57.624Z,8.93
2024-04-13T02:23:57.599Z,8.90
2024-04-13T02:24:57.575Z,8.87
2024-04-13T02:25:56.924Z,8.87
2024-04-13T02:26:57.560Z,8.84
2024-04-13T02:27:56.976Z,8.78
2024-04-13T02:28:56.889Z,8.75
2024-04-13T02:29:56.276Z,8.73
2024-04-13T02:30:57.501Z,8.75
2024-04-13T02:31:57.497Z,8.78
2024-04-13T02:32:56.943Z,8.78
2024-04-13T02:33:56.874Z,8.73
2024-04-13T02:34:57.435Z,8.75
2024-04-13T02:35:56.784Z,8.78
2024-04-13T02:36:57.401Z,8.79
2024-04-13T02:37:56.029Z,8.78
2024-04-13T02:38:56.737Z,8.76
2024-04-13T02:39:56.725Z,8.75
2024-04-13T02:40:56.699Z,8.71
2024-04-13T02:41:56.701Z,8.69
2024-04-13T02:42:56.669Z,8.62
2024-04-13T02:43:56.668Z,8.62
2024-04-13T02:44:57.306Z,8.60
2024-04-13T02:45:57.282Z,8.58
2024-04-13T02:46:56.624Z,8.58
2024-04-13T02:47:56.657Z,8.60
2024-04-13T02:48:56.786Z,8.60
2024-04-13T02:49:56.605Z,8.63
2024-04-13T02:50:56.606Z,8.62
2024-04-13T02:51:56.533Z,8.60
2024-04-13T02:52:56.522Z,8.58
2024-04-13T02:53:56.534Z,8.57
2024-04-13T02:54:56.512Z,8.57
2024-04-13T02:55:56.547Z,8.55
2024-04-13T02:56:56.460Z,8.53
2024-04-13T02:57:57.119Z,8.55
2024-04-13T02:58:56.463Z,8.58
2024-04-13T02:59:57.082Z,8.60
2024-04-13T03:00:57.119Z,8.58
2024-04-13T03:01:57.071Z,8.57
2024-04-13T03:02:57.159Z,8.55
2024-04-13T03:03:57.126Z,8.55
2024-04-13T03:04:56.365Z,8.51
2024-04-13T03:05:56.337Z,8.51
2024-04-13T03:06:57.006Z,8.47
2024-04-13T03:07:56.329Z,8.44
2024-04-13T03:08:56.358Z,8.44
2024-04-13T03:09:56.962Z,8.42
2024-04-13T03:10:57.037Z,8.40
2024-04-13T03:11:56.965Z,8.39
2024-04-13T03:12:56.276Z,8.39
2024-04-13T03:13:56.944Z,8.40
2024-04-13T03:14:56.234Z,8.42
2024-04-13T03:15:56.243Z,8.42
2024-04-13T03:16:56.221Z,8.39
2024-04-13T03:17:56.870Z,8.36
2024-04-13T03:18:56.824Z,8.37
2024-04-13T03:19:56.836Z,8.35
2024-04-13T03:20:56.840Z,8.40
2024-04-13T03:21:56.180Z,8.39
2024-04-13T03:22:56.866Z,8.39
2024-04-13T03:23:56.797Z,8.33
2024-04-13T03:24:56.749Z,8.26
2024-04-13T03:25:56.714Z,8.25
2024-04-13T03:26:55.868Z,8.25
2024-04-13T03:27:56.702Z,8.26
2024-04-13T03:28:56.678Z,8.32
2024-04-13T03:29:56.006Z,8.35
2024-04-13T03:30:56.018Z,8.35
2024-04-13T03:31:56.044Z,8.33
2024-04-13T03:32:56.022Z,8.32
2024-04-13T03:33:56.039Z,8.30
2024-04-13T03:34:55.797Z,8.29
2024-04-13T03:35:56.025Z,8.30
2024-04-13T03:36:56.584Z,8.29
2024-04-13T03:37:55.922Z,8.28
2024-04-13T03:38:55.900Z,8.25
2024-04-13T03:39:55.877Z,8.20
2024-04-13T03:40:55.858Z,8.17
2024-04-13T03:41:56.509Z,8.17
2024-04-13T03:42:57.051Z,8.17
2024-04-13T03:43:57.058Z,8.15
2024-04-13T03:44:56.473Z,8.14
2024-04-13T03:45:57.002Z,8.11
2024-04-13T03:46:55.798Z,8.12
2024-04-13T03:47:56.496Z,8.14
2024-04-13T03:48:55.844Z,8.12
2024-04-13T03:49:55.791Z,8.15
2024-04-13T03:50:55.077Z,8.15
2024-04-13T03:51:55.723Z,8.15
2024-04-13T03:52:55.705Z,8.15
2024-04-13T03:53:56.368Z,8.14
2024-04-13T03:54:55.700Z,8.12
2024-04-13T03:55:55.703Z,8.12
2024-04-13T03:56:56.316Z,8.11
2024-04-13T03:57:55.619Z,8.10
2024-04-13T03:58:56.281Z,8.08
2024-04-13T03:59:55.620Z,8.04
2024-04-13T04:00:55.685Z,8.00
2024-04-13T04:01:55.598Z,7.94
2024-04-13T04:02:56.219Z,7.92
2024-04-13T04:03:55.692Z,7.92
2024-04-13T04:04:55.595Z,7.92
2024-04-13T04:05:55.549Z,7.93
2024-04-13T04:06:56.151Z,7.94
2024-04-13T04:07:55.485Z,7.94
2024-04-13T04:08:55.490Z,7.96
2024-04-13T04:09:55.522Z,7.96
2024-04-13T04:10:56.151Z,7.94
2024-04-13T04:11:56.205Z,7.93
2024-04-13T04:12:56.106Z,7.96
2024-04-13T04:13:56.073Z,7.92
2024-04-13T04:14:55.417Z,7.89
2024-04-13T04:15:56.042Z,7.85
2024-04-13T04:16:55.372Z,7.81
2024-04-13T04:17:55.418Z,7.81
2024-04-13T04:18:56.174Z,7.79
2024-04-13T04:19:55.336Z,7.78
2024-04-13T04:20:55.325Z,7.75
2024-04-13T04:21:55.974Z,7.74
2024-04-13T04:22:55.300Z,7.71
2024-04-13T04:23:55.985Z,7.67
2024-04-13T04:24:55.291Z,7.62
2024-04-13T04:25:55.926Z,7.60
2024-04-13T04:26:55.897Z,7.56
2024-04-13T04:27:55.236Z,7.55
2024-04-13T04:28:55.215Z,7.58
2024-04-13T04:29:55.208Z,7.60
2024-04-13T04:30:54.734Z,7.62
2024-04-13T04:31:55.821Z,7.69
2024-04-13T04:32:55.352Z,7.69
2024-04-13T04:33:55.876Z,7.69
2024-04-13T04:34:55.131Z,7.69
2024-04-13T04:35:55.108Z,7.67
2024-04-13T04:36:54.385Z,7.66
2024-04-13T04:37:55.103Z,7.62
2024-04-13T04:38:54.312Z,7.59
2024-04-13T04:39:55.076Z,7.52
2024-04-13T04:40:55.767Z,7.47
2024-04-13T04:41:55.759Z,7.42
2024-04-13T04:42:55.694Z,7.50
2024-04-13T04:43:54.603Z,7.52
2024-04-13T04:44:54.619Z,7.53
2024-04-13T04:45:54.966Z,7.56
2024-04-13T04:46:54.624Z,7.56
2024-04-13T04:47:55.713Z,7.58
2024-04-13T04:48:55.673Z,7.56
2024-04-13T04:49:55.586Z,7.56
2024-04-13T04:50:54.905Z,7.56
2024-04-13T04:51:54.909Z,7.55
2024-04-13T04:52:54.789Z,7.50
2024-04-13T04:53:54.943Z,7.50
2024-04-13T04:54:54.779Z,7.50
2024-04-13T04:55:55.492Z,7.52
2024-04-13T04:56:54.850Z,7.53
2024-04-13T04:57:54.830Z,7.58
2024-04-13T04:58:54.822Z,7.59
2024-04-13T04:59:56.005Z,7.60
2024-04-13T05:00:54.503Z,7.66
2024-04-13T05:01:57.249Z,7.66
2024-04-13T05:02:54.760Z,7.63
2024-04-13T05:03:56.077Z,7.67
2024-04-13T05:04:55.957Z,7.69
2024-04-13T05:05:55.926Z,7.63
2024-04-13T05:06:55.911Z,7.66
2024-04-13T05:07:57.094Z,7.69
2024-04-13T05:08:55.893Z,7.74
2024-04-13T05:09:55.861Z,7.75
2024-04-13T05:10:55.365Z,7.77
2024-04-13T05:11:54.647Z,7.82
2024-04-13T05:12:54.626Z,7.84
2024-04-13T05:13:54.629Z,7.85
2024-04-13T05:14:54.603Z,7.84
2024-04-13T05:15:54.593Z,7.84
2024-04-13T05:16:55.214Z,7.82
2024-04-13T05:17:54.653Z,7.84
2024-04-13T05:18:55.413Z,7.85
2024-04-13T05:19:54.543Z,7.87
2024-04-13T05:20:54.537Z,7.90
2024-04-13T05:21:54.514Z,7.96
2024-04-13T05:22:55.705Z,8.02
2024-04-13T05:23:54.497Z,8.04
2024-04-13T05:24:54.460Z,8.14
2024-04-13T05:25:54.477Z,8.18
2024-04-13T05:26:54.463Z,8.25
2024-04-13T05:27:54.396Z,8.30
2024-04-13T05:28:55.599Z,8.33
2024-04-13T05:29:54.396Z,8.35
2024-04-13T05:30:54.386Z,8.33
2024-04-13T05:31:54.369Z,8.37
2024-04-13T05:32:53.793Z,8.45
2024-04-13T05:33:54.436Z,8.51
2024-04-13T05:34:55.001Z,8.55
2024-04-13T05:35:54.389Z,8.60
2024-04-13T05:36:54.298Z,8.65
2024-04-13T05:37:54.941Z,8.69
2024-04-13T05:38:54.919Z,8.72
2024-04-13T05:39:54.281Z,8.78
2024-04-13T05:40:53.481Z,8.83
2024-04-13T05:41:54.216Z,8.87
2024-04-13T05:42:53.569Z,8.90
2024-04-13T05:43:54.860Z,8.94
2024-04-13T05:44:54.195Z,8.99
2024-04-13T05:45:54.831Z,9.02
2024-04-13T05:46:54.853Z,9.05
2024-04-13T05:47:54.224Z,9.06
2024-04-13T05:48:53.396Z,9.12
2024-04-13T05:49:54.790Z,9.18
2024-04-13T05:50:57.667Z,9.25
2024-04-13T05:51:54.138Z,9.30
2024-04-13T05:52:54.100Z,9.32
2024-04-13T05:53:55.258Z,9.34
2024-04-13T05:54:54.695Z,9.39
2024-04-13T05:55:54.011Z,9.46
2024-04-13T05:56:54.000Z,9.53
2024-04-13T05:57:54.821Z,9.58
2024-04-13T05:58:54.650Z,9.64
2024-04-13T05:59:55.184Z,9.68
2024-04-13T06:00:55.306Z,9.73
2024-04-13T06:01:53.963Z,9.79
2024-04-13T06:02:55.255Z,9.81
2024-04-13T06:03:55.155Z,9.82
2024-04-13T06:04:53.943Z,9.83
2024-04-13T06:05:55.094Z,9.85
2024-04-13T06:06:53.886Z,9.85
2024-04-13T06:07:53.893Z,9.88
2024-04-13T06:08:53.871Z,9.93
2024-04-13T06:09:53.830Z,9.97
2024-04-13T06:10:54.527Z,10.00
2024-04-13T06:11:53.840Z,10.03
2024-04-13T06:12:54.450Z,10.06
2024-04-13T06:13:54.452Z,10.01
2024-04-13T06:14:53.769Z,10.03
2024-04-13T06:15:54.439Z,10.07
2024-04-13T06:16:54.498Z,10.10
2024-04-13T06:17:53.735Z,10.18
2024-04-13T06:18:54.414Z,10.19
2024-04-13T06:19:53.692Z,10.15
2024-04-13T06:20:54.334Z,10.22
2024-04-13T06:21:53.683Z,10.24
2024-04-13T06:22:53.681Z,10.30
2024-04-13T06:23:54.320Z,10.39
2024-04-13T06:24:53.665Z,10.44
2024-04-13T06:25:54.274Z,10.43
2024-04-13T06:26:53.609Z,10.51
2024-04-13T06:27:54.246Z,10.55
2024-04-13T06:28:53.604Z,10.65
2024-04-13T06:29:53.609Z,10.73
2024-04-13T06:30:53.584Z,10.81
2024-04-13T06:31:54.223Z,10.91
2024-04-13T06:32:53.590Z,10.95
2024-04-13T06:33:53.740Z,11.03
2024-04-13T06:34:53.495Z,11.14
2024-04-13T06:35:54.125Z,11.24
2024-04-13T06:36:53.493Z,11.36
2024-04-13T06:37:53.470Z,11.35
2024-04-13T06:38:53.462Z,11.46
2024-04-13T06:39:54.107Z,11.50
2024-04-13T06:40:54.062Z,11.56
2024-04-13T06:41:54.038Z,11.54
2024-04-13T06:42:53.431Z,11.46
2024-04-13T06:43:54.010Z,11.59
2024-04-13T06:44:52.597Z,11.71
2024-04-13T06:45:53.352Z,11.80
2024-04-13T06:46:53.428Z,11.90
2024-04-13T06:47:53.329Z,12.02
2024-04-13T06:48:53.976Z,12.16
2024-04-13T06:49:54.635Z,12.16
2024-04-13T06:50:53.278Z,12.26
2024-04-13T06:51:52.894Z,12.45
2024-04-13T06:52:52.892Z,12.60
2024-04-13T06:53:53.878Z,12.77
2024-04-13T06:54:53.233Z,12.89
2024-04-13T06:55:53.864Z,13.09
2024-04-13T06:56:53.837Z,13.22
2024-04-13T06:57:53.155Z,13.43
2024-04-13T06:58:53.156Z,13.63
2024-04-13T06:59:54.370Z,13.83
2024-04-13T07:00:54.447Z,14.32
2024-04-13T07:01:53.785Z,14.56
2024-04-13T07:02:53.778Z,14.99
2024-04-13T07:03:53.790Z,15.36
2024-04-13T07:04:53.085Z,15.68
2024-04-13T07:05:52.357Z,15.99
2024-04-13T07:06:54.314Z,16.35
2024-04-13T07:07:53.040Z,16.73
2024-04-13T07:08:53.672Z,16.78
2024-04-13T07:09:53.704Z,16.45
2024-04-13T07:10:53.689Z,16.53
2024-04-13T07:11:52.983Z,16.48
2024-04-13T07:12:53.011Z,16.68
2024-04-13T07:13:53.611Z,16.83
2024-04-13T07:14:54.136Z,17.04
2024-04-13T07:15:53.060Z,17.08
2024-04-13T07:16:55.059Z,17.35
2024-04-13T07:17:53.671Z,17.59
2024-04-13T07:18:54.114Z,17.69
2024-04-13T07:19:54.071Z,17.71
2024-04-13T07:20:54.099Z,17.28
2024-04-13T07:21:53.543Z,16.99
2024-04-13T07:22:52.838Z,16.83
2024-04-13T07:23:52.817Z,17.08
2024-04-13T07:24:53.445Z,17.04
2024-04-13T07:25:52.770Z,17.18
2024-04-13T07:26:53.983Z,17.63
2024-04-13T07:27:52.885Z,17.99
2024-04-13T07:28:52.758Z,18.25
2024-04-13T07:29:53.388Z,18.34
2024-04-13T07:30:52.728Z,18.52
2024-04-13T07:31:53.366Z,18.80
2024-04-13T07:32:52.735Z,19.11
2024-04-13T07:33:53.419Z,19.43
2024-04-13T07:34:52.672Z,19.51
2024-04-13T07:35:52.666Z,19.29
2024-04-13T07:36:55.359Z,18.94
2024-04-13T07:37:53.265Z,19.02
2024-04-13T07:38:53.303Z,19.20
2024-04-13T07:39:52.620Z,19.36
2024-04-13T07:40:52.611Z,19.70
2024-04-13T07:41:52.593Z,20.33
2024-04-13T07:42:52.583Z,19.93
2024-04-13T07:43:52.537Z,20.28
2024-04-13T07:44:52.568Z,20.53
2024-04-13T07:45:52.535Z,20.77
2024-04-13T07:46:53.162Z,21.14
2024-04-13T07:47:52.539Z,20.99
2024-04-13T07:48:52.562Z,20.86
2024-04-13T07:49:52.464Z,20.49
2024-04-13T07:50:53.092Z,20.23
2024-04-13T07:51:52.497Z,20.72
2024-04-13T07:52:52.463Z,21.59
2024-04-13T07:53:53.612Z,21.72
2024-04-13T07:54:52.405Z,22.04
2024-04-13T07:55:52.108Z,22.22
2024-04-13T07:56:52.108Z,22.60
2024-04-13T07:57:52.138Z,22.28
2024-04-13T07:58:53.009Z,22.68
2024-04-13T07:59:52.338Z,23.04
2024-04-13T08:00:53.094Z,22.90
2024-04-13T08:01:52.155Z,21.83
2024-04-13T08:02:52.187Z,21.36
2024-04-13T08:03:52.194Z,21.02
2024-04-13T08:04:52.109Z,21.35
2024-04-13T08:05:51.548Z,21.34
2024-04-13T08:06:53.475Z,21.71
2024-04-13T08:07:52.196Z,21.78
2024-04-13T08:08:52.172Z,22.06
2024-04-13T08:09:52.141Z,22.31
2024-04-13T08:10:51.444Z,22.62
2024-04-13T08:11:52.197Z,22.68
2024-04-13T08:12:51.438Z,22.47
2024-04-13T08:13:51.406Z,22.04
2024-04-13T08:14:52.122Z,22.01
2024-04-13T08:15:52.290Z,22.41
2024-04-13T08:16:52.854Z,22.54
2024-04-13T08:17:52.091Z,22.69
2024-04-13T08:18:52.138Z,23.05
2024-04-13T08:19:51.459Z,23.55
2024-04-13T08:20:52.681Z,23.89
2024-04-13T08:21:51.374Z,23.42
2024-04-13T08:22:51.984Z,23.53
2024-04-13T08:23:52.007Z,24.12
2024-04-13T08:24:52.710Z,24.19
2024-04-13T08:25:51.970Z,24.38
2024-04-13T08:26:52.620Z,23.34
2024-04-13T08:27:51.480Z,23.60
2024-04-13T08:28:51.924Z,23.89
2024-04-13T08:29:51.145Z,23.62
2024-04-13T08:30:52.028Z,22.67
2024-04-13T08:31:51.914Z,22.68
2024-04-13T08:32:51.906Z,22.87
2024-04-13T08:33:51.997Z,23.49
2024-04-13T08:34:52.516Z,23.85
2024-04-13T08:35:51.064Z,23.76
2024-04-13T08:36:52.521Z,24.02
2024-04-13T08:37:51.812Z,24.04
2024-04-13T08:38:51.837Z,24.52
2024-04-13T08:39:51.799Z,24.44
2024-04-13T08:40:52.428Z,24.45
2024-04-13T08:41:51.732Z,24.12
2024-04-13T08:42:51.784Z,23.67
2024-04-13T08:43:52.398Z,23.97
2024-04-13T08:44:54.214Z,24.35
2024-04-13T08:45:51.756Z,23.94
2024-04-13T08:46:52.329Z,24.37
2024-04-13T08:47:52.413Z,24.27
2024-04-13T08:48:52.441Z,23.89
2024-04-13T08:49:51.020Z,24.00
2024-04-13T08:50:52.283Z,24.50
2024-04-13T08:51:50.882Z,25.07
2024-04-13T08:52:52.242Z,25.39
2024-04-13T08:53:52.240Z,25.46
2024-04-13T08:54:51.612Z,25.54
2024-04-13T08:55:51.536Z,24.68
2024-04-13T08:56:51.578Z,24.61
2024-04-13T08:57:52.231Z,24.75
2024-04-13T08:58:51.522Z,24.95
2024-04-13T08:59:50.755Z,25.43
2024-04-13T09:00:52.244Z,25.32
2024-04-13T09:01:51.033Z,25.64
2024-04-13T09:02:51.510Z,26.22
2024-04-13T09:03:51.517Z,26.28
2024-04-13T09:04:51.411Z,25.72
2024-04-13T09:05:51.399Z,25.79
2024-04-13T09:06:51.135Z,25.19
2024-04-13T09:07:50.968Z,24.50
2024-04-13T09:08:52.028Z,24.57
2024-04-13T09:09:50.816Z,25.05
2024-04-13T09:10:51.407Z,25.57
2024-04-13T09:11:51.997Z,25.71
2024-04-13T09:12:51.346Z,25.43
2024-04-13T09:13:53.015Z,25.30
2024-04-13T09:14:51.326Z,25.62
2024-04-13T09:15:51.997Z,25.79
2024-04-13T09:16:51.941Z,25.59
2024-04-13T09:17:52.483Z,25.74
2024-04-13T09:18:52.076Z,26.04
2024-04-13T09:19:51.216Z,26.37
2024-04-13T09:20:51.218Z,26.17
2024-04-13T09:21:50.805Z,25.52
2024-04-13T09:22:51.236Z,25.31
2024-04-13T09:23:51.823Z,25.27
2024-04-13T09:24:51.844Z,25.22
2024-04-13T09:25:50.858Z,24.73
2024-04-13T09:26:51.145Z,25.22
2024-04-13T09:27:51.792Z,25.27
2024-04-13T09:28:51.797Z,25.01
2024-04-13T09:29:51.080Z,25.27
2024-04-13T09:30:50.475Z,25.38
2024-04-13T09:31:51.730Z,25.44
2024-04-13T09:32:51.775Z,25.46
2024-04-13T09:33:52.319Z,25.54
2024-04-13T09:34:51.708Z,25.98
2024-04-13T09:35:52.219Z,25.97
2024-04-13T09:36:51.673Z,25.74
2024-04-13T09:37:51.000Z,26.08
2024-04-13T09:38:52.198Z,26.36
2024-04-13T09:39:52.228Z,25.82
2024-04-13T09:40:51.652Z,26.36
2024-04-13T09:41:50.930Z,26.43
2024-04-13T09:42:50.952Z,26.27
2024-04-13T09:43:50.893Z,25.84
2024-04-13T09:44:51.548Z,25.86
2024-04-13T09:45:50.184Z,25.16
2024-04-13T09:46:50.870Z,25.42
2024-04-13T09:47:51.596Z,25.56
2024-04-13T09:48:51.017Z,24.85
2024-04-13T09:49:50.865Z,25.42
2024-04-13T09:50:51.464Z,25.61
2024-04-13T09:51:50.853Z,25.31
2024-04-13T09:52:50.765Z,24.31
2024-04-13T09:53:51.438Z,23.71
2024-04-13T09:54:50.900Z,24.08
2024-04-13T09:55:51.389Z,24.75
2024-04-13T09:56:50.793Z,25.54
2024-04-13T09:57:50.768Z,26.28
2024-04-13T09:58:51.910Z,26.01
2024-04-13T09:59:50.746Z,25.35
2024-04-13T10:00:51.431Z,25.42
2024-04-13T10:01:50.714Z,25.93
2024-04-13T10:02:51.441Z,26.01
2024-04-13T10:03:49.923Z,25.97
2024-04-13T10:04:51.279Z,25.57
2024-04-13T10:05:50.619Z,25.71
2024-04-13T10:06:50.628Z,25.53
2024-04-13T10:07:50.594Z,25.44
2024-04-13T10:08:50.590Z,25.67
2024-04-13T10:09:50.161Z,25.67
2024-04-13T10:10:50.602Z,24.82
2024-04-13T10:11:51.198Z,24.29
2024-04-13T10:12:50.583Z,24.16
2024-04-13T10:13:51.172Z,24.82
2024-04-13T10:14:50.487Z,24.83
2024-04-13T10:15:51.196Z,24.87
2024-04-13T10:16:51.191Z,25.00
2024-04-13T10:17:50.335Z,24.77
2024-04-13T10:18:50.337Z,25.50
2024-04-13T10:19:50.432Z,25.61
2024-04-13T10:20:50.449Z,25.86
2024-04-13T10:21:50.524Z,25.75
2024-04-13T10:22:51.041Z,26.27
2024-04-13T10:23:50.378Z,26.40
2024-04-13T10:24:51.728Z,26.28
2024-04-13T10:25:50.348Z,26.68
2024-04-13T10:26:51.522Z,26.44
2024-04-13T10:27:51.524Z,26.73
2024-04-13T10:28:50.962Z,26.09
2024-04-13T10:29:51.527Z,25.75
2024-04-13T10:30:52.359Z,25.93
2024-04-13T10:31:51.543Z,26.54
2024-04-13T10:32:51.474Z,26.40
2024-04-13T10:33:50.289Z,25.97
2024-04-13T10:34:50.230Z,26.12
2024-04-13T10:35:50.242Z,26.05
2024-04-13T10:36:50.851Z,26.04
2024-04-13T10:37:51.379Z,26.02
2024-04-13T10:38:51.367Z,26.11
2024-04-13T10:39:51.457Z,26.35
2024-04-13T10:40:50.149Z,26.72
2024-04-13T10:41:51.335Z,26.98
2024-04-13T10:42:52.082Z,27.42
2024-04-13T10:43:50.770Z,27.39
2024-04-13T10:44:50.081Z,27.32
2024-04-13T10:45:50.340Z,26.77
2024-04-13T10:46:50.728Z,26.61
2024-04-13T10:47:50.152Z,26.04
2024-04-13T10:48:50.777Z,25.28
2024-04-13T10:49:55.089Z,25.99
2024-04-13T10:50:51.027Z,26.29
2024-04-13T10:51:49.456Z,25.91
2024-04-13T10:52:49.986Z,25.13
2024-04-13T10:53:49.964Z,25.71
2024-04-13T10:54:50.627Z,26.55
2024-04-13T10:55:49.955Z,27.43
2024-04-13T10:56:52.479Z,28.22
2024-04-13T10:57:51.254Z,28.33
2024-04-13T10:58:50.578Z,28.29
2024-04-13T10:59:49.923Z,28.81
2024-04-13T11:00:50.590Z,29.00
2024-04-13T11:01:50.514Z,29.03
2024-04-13T11:02:49.903Z,28.84
2024-04-13T11:03:49.890Z,28.32
2024-04-13T11:04:49.842Z,27.62
2024-04-13T11:05:50.456Z,26.83
2024-04-13T11:06:50.596Z,26.43
2024-04-13T11:07:49.770Z,27.31
2024-04-13T11:08:49.803Z,27.69
2024-04-13T11:09:50.495Z,28.01
2024-04-13T11:10:49.762Z,28.11
2024-04-13T11:11:49.790Z,28.50
2024-04-13T11:12:49.767Z,28.28
2024-04-13T11:13:49.716Z,28.43
2024-04-13T11:14:48.946Z,28.56
2024-04-13T11:15:49.767Z,28.26
2024-04-13T11:16:49.675Z,26.96
2024-04-13T11:17:49.753Z,27.50
2024-04-13T11:18:49.769Z,27.77
2024-04-13T11:19:49.719Z,27.70
2024-04-13T11:20:49.638Z,27.06
2024-04-13T11:21:49.613Z,27.35
2024-04-13T11:22:49.586Z,27.62
2024-04-13T11:23:49.604Z,27.29
2024-04-13T11:24:49.710Z,27.32
2024-04-13T11:25:50.200Z,27.33
2024-04-13T11:26:49.574Z,26.69
2024-04-13T11:27:49.661Z,27.23
2024-04-13T11:28:49.531Z,27.26
2024-04-13T11:29:49.244Z,27.71
2024-04-13T11:30:49.400Z,27.76
2024-04-13T11:31:49.872Z,27.88
2024-04-13T11:32:49.545Z,28.07
2024-04-13T11:33:49.506Z,28.31
2024-04-13T11:34:49.464Z,28.54
2024-04-13T11:35:49.438Z,29.00
2024-04-13T11:36:50.125Z,28.97
2024-04-13T11:37:48.795Z,29.11
2024-04-13T11:38:48.803Z,29.35
2024-04-13T11:39:48.791Z,29.06
2024-04-13T11:40:49.351Z,27.95
2024-04-13T11:41:49.330Z,28.35
2024-04-13T11:42:53.175Z,28.10
2024-04-13T11:43:51.566Z,27.73
2024-04-13T11:44:49.375Z,27.51
2024-04-13T11:45:49.003Z,27.61
2024-04-13T11:46:49.962Z,27.70
2024-04-13T11:47:49.350Z,27.77
2024-04-13T11:48:49.386Z,26.87
2024-04-13T11:49:48.599Z,26.65
2024-04-13T11:50:49.325Z,27.19
2024-04-13T11:51:49.988Z,27.48
2024-04-13T11:52:49.870Z,28.11
2024-04-13T11:53:53.006Z,28.16
2024-04-13T11:54:49.939Z,27.50
2024-04-13T11:55:50.444Z,26.83
2024-04-13T11:56:51.783Z,26.35
2024-04-13T11:57:50.134Z,26.36
2024-04-13T11:58:49.172Z,26.37
2024-04-13T11:59:49.805Z,26.42
2024-04-13T12:00:49.199Z,25.83
2024-04-13T12:01:50.317Z,26.58
2024-04-13T12:02:49.784Z,27.62
2024-04-13T12:03:49.916Z,28.32
2024-04-13T12:04:49.132Z,28.75
2024-04-13T12:05:50.252Z,28.95
2024-04-13T12:06:49.728Z,28.63
2024-04-13T12:07:49.071Z,28.73
2024-04-13T12:08:48.425Z,28.60
2024-04-13T12:09:49.106Z,27.98
2024-04-13T12:10:49.659Z,28.19
2024-04-13T12:11:49.011Z,28.40
2024-04-13T12:12:49.636Z,27.62
2024-04-13T12:13:49.620Z,27.04
2024-04-13T12:14:54.689Z,27.06
2024-04-13T12:15:49.965Z,27.05
2024-04-13T12:16:48.925Z,27.17
2024-04-13T12:17:48.259Z,27.09
2024-04-13T12:18:49.326Z,27.09
2024-04-13T12:19:48.866Z,26.58
2024-04-13T12:20:48.859Z,26.62
2024-04-13T12:21:48.433Z,27.21
2024-04-13T12:22:49.486Z,27.16
2024-04-13T12:23:48.807Z,27.47
2024-04-13T12:24:49.511Z,28.14
2024-04-13T12:25:49.455Z,28.01
2024-04-13T12:26:49.422Z,27.67
2024-04-13T12:27:49.441Z,27.74
2024-04-13T12:28:49.406Z,27.58
2024-04-13T12:29:49.394Z,27.94
2024-04-13T12:30:49.403Z,28.16
2024-04-13T12:31:48.751Z,28.80
2024-04-13T12:32:49.545Z,27.76
2024-04-13T12:33:49.418Z,27.91
2024-04-13T12:34:49.333Z,28.38
2024-04-13T12:35:49.320Z,28.53
2024-04-13T12:36:48.657Z,28.68
2024-04-13T12:37:50.706Z,28.80
2024-04-13T12:38:49.292Z,28.14
2024-04-13T12:39:48.636Z,28.23
2024-04-13T12:40:49.254Z,28.11
2024-04-13T12:41:50.718Z,28.43
2024-04-13T12:42:48.631Z,28.56
2024-04-13T12:43:48.415Z,28.21
2024-04-13T12:44:49.190Z,28.43
2024-04-13T12:45:49.383Z,28.17
2024-04-13T12:46:49.154Z,27.95
2024-04-13T12:47:48.668Z,28.28
2024-04-13T12:48:49.746Z,28.47
2024-04-13T12:49:48.530Z,28.68
2024-04-13T12:50:49.660Z,28.23
2024-04-13T12:51:48.546Z,27.86
2024-04-13T12:52:52.309Z,27.80
2024-04-13T12:53:48.515Z,28.09
2024-04-13T12:54:49.699Z,28.28
2024-04-13T12:55:49.603Z,27.96
2024-04-13T12:56:49.592Z,28.17
2024-04-13T12:57:49.629Z,28.66
2024-04-13T12:58:52.178Z,28.91
2024-04-13T12:59:49.545Z,28.73
2024-04-13T13:00:49.587Z,28.14
2024-04-13T13:01:49.001Z,27.96
2024-04-13T13:02:49.655Z,28.21
2024-04-13T13:03:49.602Z,27.95
2024-04-13T13:04:48.929Z,27.92